WetterOnline ( https://www.wetteronline.de )

Wetter aktuell Willingen

Aktuelles Wetter: Kahler Asten (841m)

6-stündlich | Neueste Meldungen
Ortszeit Temperatur Wetter
Sa, 31.07. 2:00 11.4° C fast wolkenlos
Fr, 30.07. 20:00 17.8° C bewölkt
Fr, 30.07. 14:00 18.1° C wolkig
Fr, 30.07. 8:00 11.6° C wolkig
Fr, 30.07. 2:00 10.5° C wolkig
Do, 29.07. 20:00 13.5° C bewölkt
Do, 29.07. 14:00 14.6° C wolkig
Do, 29.07. 8:00 11.0° C bedeckt
Ortszeit Temperatur Wetter
Sa, 31.07. 4:00 10.6° C leicht bewölkt
Sa, 31.07. 3:50 10.6° C leicht bewölkt
Sa, 31.07. 3:40 10.7° C leicht bewölkt
Sa, 31.07. 3:30 10.9° C wolkig
Sa, 31.07. 3:20 10.9° C wolkig
Sa, 31.07. 3:10 11.1° C leicht bewölkt
Sa, 31.07. 3:00 11.1° C leicht bewölkt
Sa, 31.07. 2:30 11.3° C wolkig
Sa, 31.07. 2:00 11.4° C fast wolkenlos
Sa, 31.07. 1:30 11.7° C wolkenlos
Sa, 31.07. 1:00 12.1° C leicht bewölkt
Ortszeit Relative Feuchte Sichtweite
Sa, 31.07. 2:00 81% 65 km
Fr, 30.07. 20:00 62% 50 km
Fr, 30.07. 14:00 61% >70 km
Fr, 30.07. 8:00 79% >70 km
Fr, 30.07. 2:00 83% 45 km
Do, 29.07. 20:00 66% 65 km
Do, 29.07. 14:00 64% 60 km
Do, 29.07. 8:00 86% 50 km
Ortszeit Relative Feuchte Sichtweite
Sa, 31.07. 4:00 81% >70 km
Sa, 31.07. 3:50 81% -
Sa, 31.07. 3:40 80% -
Sa, 31.07. 3:30 80% 60 km
Sa, 31.07. 3:20 80% -
Sa, 31.07. 3:10 79% -
Sa, 31.07. 3:00 80% 65 km
Sa, 31.07. 2:30 81% 65 km
Sa, 31.07. 2:00 81% 65 km
Sa, 31.07. 1:30 80% 65 km
Sa, 31.07. 1:00 80% 55 km
Ortszeit Niederschlagsmenge Niederschlagsart
Sa, 31.07. 2:00 0.1 l/m2 in 6 Std. Regen
Fr, 30.07. 20:00 0.0 l/m2 in 12 Std. -
Fr, 30.07. 14:00 0.0 l/m2 in 6 Std. -
Fr, 30.07. 8:00 0.0 l/m2 in 12 Std. -
Fr, 30.07. 2:00 0.0 l/m2 in 6 Std. -
Do, 29.07. 20:00 0.0 l/m2 in 12 Std. -
Do, 29.07. 14:00 0.0 l/m2 in 6 Std. -
Do, 29.07. 8:00 0.1 l/m2 in 12 Std. Regen
Ortszeit Niederschlagsmenge Niederschlagsart
Sa, 31.07. 4:00 0.0 l/m2 in 1 Std. -
Sa, 31.07. 3:50 keine Meldung -
Sa, 31.07. 3:40 keine Meldung -
Sa, 31.07. 3:30 0.0 l/m2 in 1 Std. -
Sa, 31.07. 3:20 keine Meldung -
Sa, 31.07. 3:10 keine Meldung -
Sa, 31.07. 3:00 0.0 l/m2 in 1 Std. -
Sa, 31.07. 2:30 0.0 l/m2 in 1 Std. -
Sa, 31.07. 2:00 0.0 l/m2 in 1 Std. Regen
Sa, 31.07. 1:30 0.0 l/m2 in 1 Std. -
Sa, 31.07. 1:00 0.0 l/m2 in 1 Std. -
Ortszeit Stärke Spitze Richtung
km/h Bft. km/h Grad Sektor
Sa, 31.07. 2:00 25 4 61 250° W
Fr, 30.07. 20:00 22 4 48 220° SW
Fr, 30.07. 14:00 25 4 43 190° S
Fr, 30.07. 8:00 19 3 30 220° SW
Fr, 30.07. 2:00 18 3 29 250° W
Do, 29.07. 20:00 19 3 54 240° SW
Do, 29.07. 14:00 28 4 61 240° SW
Do, 29.07. 8:00 25 4 50 250° W
Ortszeit Stärke Spitze Richtung
km/h Bft. km/h Grad Sektor
Sa, 31.07. 4:00 25 4 50 240° SW
Sa, 31.07. 3:50 25 4 - 240° SW
Sa, 31.07. 3:40 28 4 - 240° SW
Sa, 31.07. 3:30 28 4 44 240° SW
Sa, 31.07. 3:20 28 4 - 240° SW
Sa, 31.07. 3:10 30 5 - 230° SW
Sa, 31.07. 3:00 26 4 37 220° SW
Sa, 31.07. 2:30 25 4 40 230° SW
Sa, 31.07. 2:00 25 4 43 250° W
Sa, 31.07. 1:30 25 4 43 240° SW
Sa, 31.07. 1:00 32 5 54 250° W
Ortszeit Untergrenze Bedeckung Gattung
total tief tief mittel hoch
Sa, 31.07. 2:00 840 m 1/8 1/8 - - -
Fr, 30.07. 20:00 1200 m 7/8 7/8 - - -
Fr, 30.07. 14:00 900 m 5/8 4/8 - - -
Fr, 30.07. 8:00 7200 m 8/8 0/8 - - -
Fr, 30.07. 2:00 4500 m 6/8 7/8 - - -
Do, 29.07. 20:00 1050 m 7/8 7/8 - - -
Do, 29.07. 14:00 1470 m 5/8 5/8 - - -
Do, 29.07. 8:00 240 m 8/8 8/8 - - -
Ortszeit Bedeckungsgrad in Achtel und Wolkenuntergrenze
Sa, 31.07. 4:00 4(1050m)
Sa, 31.07. 3:50 4(1050m)
Sa, 31.07. 3:40 2(870m) 2(1080m)
Sa, 31.07. 3:30 5(870m) 4(870m) 5(1140m)
Sa, 31.07. 3:20 5(870m)
Sa, 31.07. 3:10 4(870m)
Sa, 31.07. 3:00 2(1800m)
Sa, 31.07. 2:30 6(1800m)
Sa, 31.07. 2:00 1(840m)
Sa, 31.07. 1:30 keine Wolken
Sa, 31.07. 1:00 2(1800m)
Ortszeit Stationsdruck (hPa) Tendenz (hPa in 3 Std.)
Sa, 31.07. 2:00 911 - 0,1
Fr, 30.07. 20:00 911 - 0,6
Fr, 30.07. 14:00 913 - 0,9
Fr, 30.07. 8:00 914 - 0,5
Fr, 30.07. 2:00 915 - 0,6
Do, 29.07. 20:00 915 + 0,1
Do, 29.07. 14:00 915 + 0,5
Do, 29.07. 8:00 914 + 0,5
Ortszeit Stationsdruck (hPa) Tendenz (hPa in 3 Std.)
Sa, 31.07. 4:00 910 - 0,3
Sa, 31.07. 3:50 910 keine Meldung
Sa, 31.07. 3:40 910 keine Meldung
Sa, 31.07. 3:30 910 - 0,5
Sa, 31.07. 3:20 910 keine Meldung
Sa, 31.07. 3:10 910 keine Meldung
Sa, 31.07. 3:00 910 - 0,6
Sa, 31.07. 2:30 911 - 0,5
Sa, 31.07. 2:00 911 - 0,1
Sa, 31.07. 1:30 911 0,0
Sa, 31.07. 1:00 911 0,0
Ortszeit Schneehöhe (cm)
Sa, 31.07. 2:00 -
Fr, 30.07. 20:00 -
Fr, 30.07. 14:00 -
Fr, 30.07. 8:00 -
Fr, 30.07. 2:00 -
Do, 29.07. 20:00 -
Do, 29.07. 14:00 -
Do, 29.07. 8:00 -
Ortszeit Schneehöhe (cm)
Sa, 31.07. 4:00 -
Sa, 31.07. 3:50 -
Sa, 31.07. 3:40 -
Sa, 31.07. 3:30 -
Sa, 31.07. 3:20 -
Sa, 31.07. 3:10 -
Sa, 31.07. 3:00 -
Sa, 31.07. 2:30 -
Sa, 31.07. 2:00 -
Sa, 31.07. 1:30 -
Sa, 31.07. 1:00 -
Link zu dieser Seite / Seite empfehlen

Das Wetter in ...